MV Hermann Scan — V2CM8 — position and weather

sailwx.info

Track history (hours):
 
Tides and Currents Weather Stations Pressure Air Temp Water Temp Dewpoint Dewpoint Depression Visibility Wind Speed Wind Dir Waves Ship Positions

MV Hermann Scan

Last reported at 2017-Nov-19 02:04 UTC. Time now 2017-Nov-22 18:38 UTC.
Position N 37°45' W 000°21'.

Length 118 m; draft 7.3 m.

Type: Cargo ship. MMSI: 305046000.

Date/timePositionNaut miles runAvg speedWind from/ knotsBaromVisibWave heightAir tempDewpointWater temp
2017-Nov-19 02:04N 37°45' W 000°21'112.5
2017-Nov-19 02:00N 37°44' W 000°22'612.4
2017-Nov-19 01:30N 37°39' W 000°26'612.6
2017-Nov-19 01:00N 37°34' W 000°30'612.5
2017-Nov-19 00:30N 37°30' W 000°36'612.6
2017-Nov-19 00:00N 37°26' W 000°42'612.6
2017-Nov-18 23:30N 37°22' W 000°48'612.4
2017-Nov-18 23:00N 37°17' W 000°54'22012.3
2017-Nov-18 05:07N 35°60' W 005°10'113.8
2017-Nov-18 05:00N 35°59' W 005°12'713.6
2017-Nov-18 04:30N 35°59' W 005°20'713.4
2017-Nov-18 04:01N 35°57' W 005°28'  
Track history (hours):
 
Tides and Currents Weather Stations Pressure Air Temp Water Temp Dewpoint Dewpoint Depression Visibility Wind Speed Wind Dir Waves Ship Positions

MV Hermann Scan

Last reported at 2017-Nov-19 02:04 UTC. Time now 2017-Nov-22 18:38 UTC.
Position N 37°45' W 000°21'.

Length 118 m; draft 7.3 m.

Type: Cargo ship. MMSI: 305046000.

Date/timePositionNaut miles runAvg speedWind from/ knotsBaromVisibWave heightAir tempDewpointWater temp
2017-Nov-19 02:04N 37°45' W 000°21'112.5
2017-Nov-19 02:00N 37°44' W 000°22'612.4
2017-Nov-19 01:30N 37°39' W 000°26'612.6
2017-Nov-19 01:00N 37°34' W 000°30'612.5
2017-Nov-19 00:30N 37°30' W 000°36'612.6
2017-Nov-19 00:00N 37°26' W 000°42'612.6
2017-Nov-18 23:30N 37°22' W 000°48'612.4
2017-Nov-18 23:00N 37°17' W 000°54'22012.3
2017-Nov-18 05:07N 35°60' W 005°10'113.8
2017-Nov-18 05:00N 35°59' W 005°12'713.6
2017-Nov-18 04:30N 35°59' W 005°20'713.4
2017-Nov-18 04:01N 35°57' W 005°28'  

Dump ship's entire track history